Muscadine, AL (36269)

5:03 PM CDT on April 18, 2015 (GMT -0500)
APRSWXNET | | Change Station
CLOSE
Current Station
Personal Weather Station
Location: Heflin, AL
Elevation: 1040 ft
Nearby Weather Stations

Elev 1040 ft 33.65 °N, 85.58 °W | Updated 20 minutes ago

Overcast
Overcast
71 °F
Feels Like 71 °F
N
0
Wind Variable Wind from ESE
Gusts 2.0 mph

Today
High -- | Low -- °F
--% Chance of Precip.
Yesterday
High -- | Low -- °F
Precip. -- in
6:07 AM 7:14 PM
New Moon, 0% visible
Pressure 29.93 in
Visibility 5.0 miles
Clouds Scattered Clouds 1300 ft
Mostly Cloudy 2100 ft
Overcast 2700 ft
Dew Point 67 °F
Humidity 88%
Rainfall in
Snow Depth Not available.
UV 1 out of 12
Pollen 9.90 out of 12
Air Quality Not available.
Flu Activity Sporadic
METAR KPUJ 182155Z AUTO 00000KT 5SM RA SCT013 BKN021 OVC027 20/20 A2993 RMK AO2

More Conditions Fewer Conditions

Pressure 29.93 in
Visibility 5.0 miles
Clouds Scattered Clouds 1300 ft
Mostly Cloudy 2100 ft
Overcast 2700 ft
Dew Point 67 °F
Humidity 88%
Rainfall in
Snow Depth Not available.
UV 1 out of 12
Pollen 9.90 out of 12
Air Quality Not available.
Flu Activity Sporadic
METAR KPUJ 182155Z AUTO 00000KT 5SM RA SCT013 BKN021 OVC027 20/20 A2993 RMK AO2

More Conditions Fewer Conditions

10-Day Weather Forecast

Almanac

Astronomy

Apr. 18, 2015 Rise Set
Actual Time
Civil Twilight
Nautical Twilight
Astronomical Twilight
Moon
Length of Visible Light
Length of Day
Tomorrow will be .
, % of the Moon is Illuminated

Today's Extremes

State Highs State Lows

Community

WunderPhotos

Upload Photos

1,814,549 photos uploaded!

WunderBlogs® & News

Nearby

Air Quality

  Air Quality AQ Index Pollutant
Not available.

Snow Depth

Station Depth Elevation

Earthquake Activity

City Distance Mag. Time & Date
Minimum magnitude displayed is 2.5.

Coastal Water Temperatures

Place Temperature

Stations

Nearby Weather Stations

Station Location Temp. Windchill Dew Point Humidity Wind Precip. Elev Updated Type